»·PEaware :: AAL2448 KPHX-KDEN

AAL2448 :: KPHX-KDEN

FLIGHT INFORMATION

Flight Status: Arrived
Operator:
American Airlines
More flights by this operator :: More flights under this callsign
Pilot: John C. (18682)
Aircraft: AIRBUS A320
(A320)
More flights by this aircraft type
Origin: KPHX Phoenix Sky Harbor Intl
United States
Destination: KDEN Denver Intl
United States
More flights between these airports :: More routes between these airports
Route: +YOTES5 YOOPR OURAY PEEKK3
File this flight plan on PilotEdge
Remarks:
Altitude:
(Current/Filed)
35,000ft
Speed:
(Current/Filed)
463kts
Departed: 20-Apr-18 04:44 PM
Arrived: 20-Apr-18 06:09 PM
Distance/Time
Traveled:
522nm/1:25
Distance/Time
To Go:
Arrived

Flight Plot

Page will automatically refresh every two minutes.


Map Options




Map Legend


Flown Route
Filed Route
Departure Airport
Arrival Airport
Navaid (VOR, NDB)
Fix

Horizontal Profiles

Position Reports

Time Latitude Longitude Heading Altitude Ground
Speed
20-Apr-18 16:11 33.437858 -111.997362 90 1133ft 0kts
20-Apr-18 16:12 33.437858 -111.997362 90 1133ft 0kts
20-Apr-18 16:13 33.437858 -111.997362 90 1133ft 0kts
20-Apr-18 16:14 33.437858 -111.997362 90 1133ft 0kts
20-Apr-18 16:15 33.437858 -111.997362 90 1133ft 0kts
20-Apr-18 16:16 33.437858 -111.997362 90 1133ft 0kts
20-Apr-18 16:17 33.437858 -111.997362 90 1133ft 0kts
20-Apr-18 16:18 33.437858 -111.997362 90 1133ft 0kts
20-Apr-18 16:19 33.437858 -111.997362 90 1133ft 0kts
20-Apr-18 16:20 33.437858 -111.997362 90 1133ft 0kts
20-Apr-18 16:21 33.437858 -111.997362 90 1133ft 0kts
20-Apr-18 16:22 33.437858 -111.997362 90 1133ft 0kts
20-Apr-18 16:23 33.437858 -111.997362 90 1133ft 0kts
20-Apr-18 16:24 33.437858 -111.997362 90 1133ft 0kts
20-Apr-18 16:25 33.437858 -111.997362 90 1133ft 0kts
20-Apr-18 16:26 33.437858 -111.997362 90 1133ft 0kts
20-Apr-18 16:27 33.437858 -111.997362 90 1133ft 0kts
20-Apr-18 16:28 33.437858 -111.997362 90 1133ft 0kts
20-Apr-18 16:29 33.437858 -111.997362 90 1133ft 0kts
20-Apr-18 16:30 33.437858 -111.997362 90 1133ft 0kts
20-Apr-18 16:31 33.437858 -111.997362 90 1133ft 0kts
20-Apr-18 16:32 33.437858 -111.997362 90 1133ft 0kts
20-Apr-18 16:33 33.437858 -111.997362 90 1133ft 0kts
20-Apr-18 16:34 33.437859 -111.997388 90 1133ft 1kts
20-Apr-18 16:35 33.437594 -111.997826 2 1132ft 0kts
20-Apr-18 16:36 33.437524 -111.997823 359 1132ft 0kts
20-Apr-18 16:37 33.437760 -111.997819 0 1133ft 8kts
20-Apr-18 16:38 33.438419 -111.997816 0 1134ft 0kts
20-Apr-18 16:39 33.438784 -111.997820 1 1134ft 0kts
20-Apr-18 16:40 33.439732 -111.996465 90 1136ft 17kts
20-Apr-18 16:41 33.439926 -111.990506 8 1137ft 0kts
20-Apr-18 16:42 33.440150 -111.990583 323 1137ft 9kts
20-Apr-18 16:43 33.440831 -112.008226 269 1156ft 155kts
20-Apr-18 16:44 33.440664 -112.066652 270 3041ft 222kts
20-Apr-18 16:45 33.486079 -112.128959 316 6159ft 268kts
20-Apr-18 16:46 33.550508 -112.171321 359 9726ft 289kts
20-Apr-18 16:47 33.637344 -112.144752 46 10759ft 395kts
20-Apr-18 16:48 33.712490 -112.047468 43 14147ft 409kts
20-Apr-18 16:49 33.787006 -111.940929 48 16962ft 431kts
20-Apr-18 16:50 33.860903 -111.824524 48 19482ft 450kts
20-Apr-18 16:51 33.937558 -111.703052 47 21768ft 466kts
20-Apr-18 16:52 34.022940 -111.585690 25 23798ft 463kts
20-Apr-18 16:53 34.130996 -111.501673 24 25623ft 475kts
20-Apr-18 16:54 34.242075 -111.416094 23 27877ft 473kts
20-Apr-18 16:55 34.351161 -111.331821 23 29859ft 470kts
20-Apr-18 16:56 34.460686 -111.246843 22 31642ft 465kts
20-Apr-18 16:57 34.568779 -111.162866 21 33071ft 464kts
20-Apr-18 16:58 34.676237 -111.082341 12 34228ft 451kts
20-Apr-18 16:59 34.788310 -111.011145 16 35089ft 455kts
20-Apr-18 17:00 34.900995 -110.937289 17 35082ft 463kts
20-Apr-18 17:01 35.012405 -110.864007 22 35076ft 453kts
20-Apr-18 17:02 35.121041 -110.792235 23 35076ft 451kts
20-Apr-18 17:03 35.231167 -110.719363 23 35076ft 451kts
20-Apr-18 17:04 35.341110 -110.646326 23 35077ft 451kts
20-Apr-18 17:05 35.450753 -110.573264 23 35075ft 451kts
20-Apr-18 17:06 35.560751 -110.499727 23 35075ft 452kts
20-Apr-18 17:07 35.666915 -110.419319 42 35092ft 462kts
20-Apr-18 17:08 35.751395 -110.301751 44 35073ft 464kts
20-Apr-18 17:09 35.836245 -110.181749 44 35073ft 465kts
20-Apr-18 17:10 35.920842 -110.061595 44 35069ft 464kts
20-Apr-18 17:11 36.005072 -109.941538 44 35066ft 465kts
20-Apr-18 17:12 36.089217 -109.821175 44 35065ft 465kts
20-Apr-18 17:13 36.171642 -109.703042 44 35068ft 465kts
20-Apr-18 17:14 36.247913 -109.593193 44 35065ft 465kts
20-Apr-18 17:15 36.326765 -109.479235 44 35066ft 465kts
20-Apr-18 17:16 36.410776 -109.358502 44 35069ft 465kts
20-Apr-18 17:17 36.493118 -109.238490 45 35065ft 465kts
20-Apr-18 17:18 36.576897 -109.116070 45 35029ft 471kts
20-Apr-18 17:19 36.647998 -109.011816 46 35003ft 478kts
20-Apr-18 17:20 36.734140 -108.885046 46 35011ft 481kts
20-Apr-18 17:21 36.820248 -108.757860 46 35004ft 481kts
20-Apr-18 17:22 36.906121 -108.630538 46 35012ft 481kts
20-Apr-18 17:23 36.991912 -108.502869 47 35004ft 479kts
20-Apr-18 17:24 37.075855 -108.377444 48 35013ft 466kts
20-Apr-18 17:25 37.153307 -108.261344 49 35005ft 456kts
20-Apr-18 17:26 37.234558 -108.139070 49 35026ft 458kts
20-Apr-18 17:27 37.315712 -108.016487 49 35030ft 458kts
20-Apr-18 17:28 37.395835 -107.895007 49 35031ft 458kts
20-Apr-18 17:29 37.476319 -107.772531 50 35045ft 459kts
20-Apr-18 17:30 37.556909 -107.649430 49 35061ft 458kts
20-Apr-18 17:31 37.637567 -107.525767 49 35049ft 458kts
20-Apr-18 17:32 37.717398 -107.402905 49 35066ft 458kts
20-Apr-18 17:33 37.796420 -107.280710 50 35054ft 458kts
20-Apr-18 17:34 37.876451 -107.156603 50 35061ft 458kts
20-Apr-18 17:35 37.954008 -107.035895 50 35027ft 458kts
20-Apr-18 17:36 38.035031 -106.909334 51 35030ft 472kts
20-Apr-18 17:37 38.116235 -106.782043 52 35026ft 478kts
20-Apr-18 17:38 38.198816 -106.651989 51 35058ft 465kts
20-Apr-18 17:39 38.285332 -106.532739 44 35065ft 467kts
20-Apr-18 17:40 38.376906 -106.419030 44 35079ft 465kts
20-Apr-18 17:41 38.467486 -106.306315 44 35093ft 464kts
20-Apr-18 17:42 38.558330 -106.192883 44 35093ft 464kts
20-Apr-18 17:43 38.648962 -106.079289 44 35045ft 465kts
20-Apr-18 17:44 38.740134 -105.964415 44 34135ft 464kts
20-Apr-18 17:45 38.832264 -105.848338 44 33305ft 467kts
20-Apr-18 17:46 38.923020 -105.732738 45 31937ft 467kts
20-Apr-18 17:47 39.013840 -105.616928 46 29644ft 468kts
20-Apr-18 17:48 39.100082 -105.506743 44 26906ft 411kts
20-Apr-18 17:49 39.174666 -105.411517 45 24584ft 367kts
20-Apr-18 17:50 39.243262 -105.323426 46 22444ft 341kts
20-Apr-18 17:51 39.315293 -105.248303 38 20663ft 332kts
20-Apr-18 17:52 39.387036 -105.177485 37 18950ft 324kts
20-Apr-18 17:53 39.457661 -105.109226 37 17272ft 319kts
20-Apr-18 17:54 39.526229 -105.042096 38 16586ft 313kts
20-Apr-18 17:55 39.595425 -104.973942 40 16034ft 320kts
20-Apr-18 17:56 39.665141 -104.905083 39 15493ft 331kts
20-Apr-18 17:57 39.739136 -104.843950 4 14592ft 316kts
20-Apr-18 17:58 39.823706 -104.840616 359 12993ft 302kts
20-Apr-18 17:59 39.904594 -104.839327 359 11445ft 281kts
20-Apr-18 18:00 39.973564 -104.839651 357 10131ft 246kts
20-Apr-18 18:01 40.036767 -104.826303 47 8227ft 234kts
20-Apr-18 18:02 40.073643 -104.762943 90 7025ft 209kts
20-Apr-18 18:03 40.041048 -104.708566 146 7008ft 190kts
20-Apr-18 18:04 39.997067 -104.684253 191 7019ft 176kts
20-Apr-18 18:05 39.951198 -104.686161 181 6519ft 148kts
20-Apr-18 18:06 39.912732 -104.686645 181 5784ft 128kts
20-Apr-18 18:07 39.881888 -104.686842 180 5442ft 54kts
20-Apr-18 18:08 39.876595 -104.685735 150 5442ft 0kts
20-Apr-18 18:09 39.874318 -104.684815 180 5442ft 19kts
20-Apr-18 18:10 39.868690 -104.684865 180 5442ft 21kts
20-Apr-18 18:11 39.862097 -104.684947 180 5442ft 25kts
20-Apr-18 18:12 39.856022 -104.684347 102 5442ft 15kts
20-Apr-18 18:13 39.855919 -104.678170 91 5442ft 20kts
20-Apr-18 18:14 39.854716 -104.674666 183 5442ft 3kts
20-Apr-18 18:15 39.854381 -104.674698 184 5442ft 0kts
20-Apr-18 18:16 39.854381 -104.674698 184 5442ft 0kts
20-Apr-18 18:17 39.854381 -104.674698 184 5442ft 0kts
20-Apr-18 18:18 39.854381 -104.674698 184 5442ft 0kts
20-Apr-18 18:19 39.854381 -104.674698 184 5442ft 0kts
20-Apr-18 18:20 39.854381 -104.674698 184 5442ft 0kts

Navigation Log

Ident Type
1. KPHX Airport
2. SPRKY Fix
3. GOALY Fix
4. POCCK Fix
5. MRBIL Fix
6. YOTES Fix
7. YOOPR Fix
8. OURAY Fix
9. KNOSA Fix
10. RAWAH Fix
11. FREZE Fix
12. PEEKK Fix
13. LARKS Fix
14. VRYHI Fix
15. EOLUS Fix
16. LOOOK Fix
17. LONGS Fix
18. CLFFF Fix
19. GREYS Fix
20. HIMAY Fix
21. KDEN Airport